Time;durP1;ratioP1;P1;durP2;ratioP2;P2;SDS_P1;SDS_P2;PMS_P1;PMS_P2;Temp;Humidity;BMP_temperature;BMP_pressure;BME280_temperature;BME280_humidity;BME280_pressure;Samples;Min_cycle;Max_cycle;Signal;HPM_P1;HPM_P2
2022/02/13 00:01:37;;;;;;;12.93;6.93;;;;;;;0.88;95.77;66879.53;5015003;28;20524;-90
2022/02/13 00:04:04;;;;;;;13.30;7.43;;;;;;;0.82;95.37;66870.16;5028018;28;20476;-89
2022/02/13 00:06:29;;;;;;;15.45;7.22;;;;;;;0.85;96.10;66878.78;5010380;28;20053;-89
2022/02/13 00:08:56;;;;;;;13.48;8.25;;;;;;;0.80;96.90;66871.09;5017026;28;20136;-89
2022/02/13 00:11:22;;;;;;;22.08;7.13;;;;;;;0.81;97.78;66869.59;5008472;28;20046;-89
2022/02/13 00:13:48;;;;;;;16.85;8.48;;;;;;;0.78;97.19;66868.28;5021538;28;20057;-88
2022/02/13 00:16:14;;;;;;;15.63;8.15;;;;;;;0.74;97.55;66866.41;5026935;28;20041;-88
2022/02/13 00:18:39;;;;;;;15.88;8.38;;;;;;;;;;5018478;28;20414;-89
2022/02/13 00:21:05;;;;;;;15.75;8.65;;;;;;;0.67;97.75;66853.84;5025194;28;20052;-89
2022/02/13 00:23:30;;;;;;;14.45;7.95;;;;;;;0.66;97.74;66853.28;5027987;28;20467;-88
2022/02/13 00:25:59;;;;;;;15.85;8.32;;;;;;;0.66;98.54;66858.53;5023322;28;20046;-87
2022/02/13 00:28:27;;;;;;;18.70;7.43;;;;;;;0.62;97.63;66848.78;5021448;28;20552;-89
2022/02/13 00:30:53;;;;;;;19.23;8.88;;;;;;;0.61;98.44;66852.91;5003217;28;20057;-88
2022/02/13 00:33:19;;;;;;;14.95;7.55;;;;;;;0.62;98.76;66848.22;5030818;28;20065;-88
2022/02/13 00:35:46;;;;;;;13.52;7.65;;;;;;;0.59;98.46;66850.09;5027868;28;20065;-89
2022/02/13 00:38:12;;;;;;;13.85;8.23;;;;;;;0.58;98.30;66844.28;5017138;28;20495;-88
2022/02/13 00:40:38;;;;;;;12.63;6.82;;;;;;;0.62;98.68;66851.41;5023692;28;20043;-88
2022/02/13 00:43:03;;;;;;;15.88;7.95;;;;;;;0.68;98.56;66854.97;5008622;28;20049;-88
2022/02/13 00:45:28;;;;;;;13.40;7.18;;;;;;;0.65;99.04;66857.38;5024941;28;20145;-89
2022/02/13 00:47:54;;;;;;;16.55;8.68;;;;;;;;;;5016235;28;20045;-88
2022/02/13 00:50:19;;;;;;;14.40;8.20;;;;;;;0.63;98.84;66849.91;5018176;28;20038;-88
2022/02/13 00:52:44;;;;;;;13.13;7.57;;;;;;;0.55;98.70;66840.34;5020640;28;20041;-87
2022/02/13 00:55:10;;;;;;;13.68;8.00;;;;;;;0.54;99.73;66839.22;5020599;28;20056;-88
2022/02/13 00:57:36;;;;;;;16.23;7.90;;;;;;;0.55;99.21;66840.91;5018673;28;20064;-88
2022/02/13 01:00:05;;;;;;;10.73;5.72;;;;;;;;;;5023904;28;20297;-87
2022/02/13 01:02:31;;;;;;;18.55;7.10;;;;;;;0.53;99.17;66838.09;5037693;28;20490;-87
2022/02/13 01:04:56;;;;;;;15.20;6.63;;;;;;;0.55;99.76;66840.34;5001464;28;20399;-88
2022/02/13 01:07:22;;;;;;;14.18;7.75;;;;;;;0.52;98.95;66840.16;5001866;28;20398;-87
2022/02/13 01:09:47;;;;;;;14.93;7.30;;;;;;;0.52;98.72;66837.53;5016669;28;20471;-87
2022/02/13 01:12:14;;;;;;;14.57;8.98;;;;;;;0.54;99.27;66834.53;5030293;28;20045;-87
2022/02/13 01:14:39;;;;;;;17.60;7.80;;;;;;;0.50;99.11;66834.72;5018948;28;20164;-87
2022/02/13 01:17:05;;;;;;;15.13;7.38;;;;;;;0.50;99.33;66834.72;5022268;28;20116;-88
2022/02/13 01:19:30;;;;;;;12.32;8.07;;;;;;;0.51;99.73;66836.41;5014064;28;20517;-86
2022/02/13 01:21:55;;;;;;;23.40;7.40;;;;;;;;;;4995141;28;20047;-88
2022/02/13 01:24:21;;;;;;;14.38;8.48;;;;;;;0.50;100.00;66837.91;5012771;28;20049;-87
2022/02/13 01:26:46;;;;;;;15.45;8.02;;;;;;;0.42;99.83;66828.91;5017059;28;20133;-87
2022/02/13 01:29:12;;;;;;;17.90;8.82;;;;;;;0.39;100.00;66828.16;5014838;28;20108;-87
2022/02/13 01:31:39;;;;;;;14.38;8.52;;;;;;;0.35;100.00;66818.41;5021094;28;20041;-87
2022/02/13 01:34:05;;;;;;;16.95;8.82;;;;;;;0.31;100.00;66816.53;5020576;28;20516;-88
2022/02/13 01:36:31;;;;;;;17.08;9.23;;;;;;;0.32;100.00;66817.66;5022172;28;20173;-87
2022/02/13 01:38:56;;;;;;;14.43;7.82;;;;;;;0.22;99.79;66804.91;5024699;28;20148;-87
2022/02/13 01:41:23;;;;;;;18.25;9.30;;;;;;;0.28;100.00;66811.09;5015727;28;20046;-87
2022/02/13 01:43:48;;;;;;;14.20;9.20;;;;;;;0.23;100.00;66805.47;5015904;28;20053;-87
2022/02/13 01:46:14;;;;;;;20.15;9.57;;;;;;;0.24;100.00;66800.81;5014388;28;20037;-88
2022/02/13 01:48:39;;;;;;;17.55;9.88;;;;;;;0.25;100.00;66812.97;5018607;28;20100;-88
2022/02/13 01:51:05;;;;;;;14.90;8.68;;;;;;;0.24;100.00;66806.03;5020055;28;20037;-88
2022/02/13 01:53:30;;;;;;;13.07;7.65;;;;;;;;;;4988669;28;20073;-88
2022/02/13 01:55:56;;;;;;;15.80;8.50;;;;;;;0.15;100.00;66797.06;5018040;28;20049;-88
2022/02/13 01:58:22;;;;;;;16.17;8.50;;;;;;;0.07;100.00;66788.06;5023352;28;20048;-88
2022/02/13 02:00:48;;;;;;;14.75;9.32;;;;;;;0.08;100.00;66791.22;5023151;28;20046;-87
2022/02/13 02:03:13;;;;;;;19.20;9.32;;;;;;;0.12;100.00;66795.75;5015147;28;20387;-88
2022/02/13 02:05:38;;;;;;;14.20;7.95;;;;;;;0.12;100.00;66793.69;5011684;28;20487;-88
2022/02/13 02:08:04;;;;;;;16.48;9.38;;;;;;;0.15;100.00;66797.06;5004302;28;20044;-86
2022/02/13 02:10:30;;;;;;;13.82;8.25;;;;;;;0.10;100.00;66791.41;5021447;28;20049;-88
2022/02/13 02:12:55;;;;;;;13.20;8.30;;;;;;;0.11;100.00;66797.22;5014062;28;20424;-87
2022/02/13 02:15:21;;;;;;;16.80;8.15;;;;;;;0.16;100.00;66800.78;4987753;28;20053;-88
2022/02/13 02:17:46;;;;;;;13.82;8.38;;;;;;;0.13;100.00;66797.41;5017220;28;20105;-87
2022/02/13 02:20:13;;;;;;;14.60;8.73;;;;;;;0.13;100.00;66794.78;4994342;28;20033;-87
2022/02/13 02:22:45;;;;;;;13.73;7.47;;;;;;;;;;5003544;28;20092;-88
2022/02/13 02:25:10;;;;;;;13.38;7.55;;;;;;;0.11;99.85;66795.16;5027675;28;20043;-87
2022/02/13 02:27:36;;;;;;;15.20;8.13;;;;;;;0.13;100.00;66800.03;5020481;28;20490;-87
2022/02/13 02:30:01;;;;;;;12.88;7.60;;;;;;;0.13;100.00;66797.41;5020520;28;20125;-87
2022/02/13 02:32:26;;;;;;;16.08;8.48;;;;;;;0.15;100.00;66799.09;5018080;28;20045;-86
2022/02/13 02:34:52;;;;;;;17.90;8.75;;;;;;;;;;5025503;28;20085;-86
2022/02/13 02:37:17;;;;;;;12.13;7.07;;;;;;;0.15;99.53;66796.50;5017254;28;20132;-88
2022/02/13 02:39:42;;;;;;;15.07;7.97;;;;;;;0.13;99.52;66794.78;5022943;28;20103;-86
2022/02/13 02:42:11;;;;;;;11.68;7.95;;;;;;;0.15;99.55;66796.50;5019433;28;20402;-86
2022/02/13 02:44:37;;;;;;;;;;;;;;;0.10;98.83;66791.41;5014699;28;20483;-86
2022/02/13 02:47:03;;;;;;;12.20;7.22;;;;;;;0.03;99.54;66788.78;5025540;28;19929;-89
2022/02/13 02:49:28;;;;;;;15.52;7.93;;;;;;;0.06;99.15;66786.94;5025781;28;20044;-87
2022/02/13 02:51:53;;;;;;;14.52;7.22;;;;;;;0.12;99.82;66795.75;5011692;28;20041;-88
2022/02/13 02:54:19;;;;;;;13.98;8.27;;;;;;;0.12;99.18;66793.69;5019199;28;20516;-87
2022/02/13 02:56:44;;;;;;;12.38;6.70;;;;;;;0.16;98.74;66798.16;5033226;28;20053;-87
2022/02/13 02:59:09;;;;;;;11.93;6.45;;;;;;;0.14;98.03;66801.16;5022883;28;20040;-87
2022/02/13 03:01:35;;;;;;;12.27;7.10;;;;;;;0.15;98.37;66797.06;5024334;28;20050;-89
2022/02/13 03:04:01;;;;;;;14.50;7.20;;;;;;;0.18;98.05;66800.41;5024165;28;20041;-87
2022/02/13 03:06:27;;;;;;;13.02;7.18;;;;;;;0.21;97.77;66803.22;5021130;28;20049;-86
2022/02/13 03:08:52;;;;;;;14.95;7.90;;;;;;;0.24;97.61;66806.59;5021110;28;20096;-86
2022/02/13 03:11:17;;;;;;;13.63;7.85;;;;;;;0.21;96.92;66803.22;5019531;28;20041;-86
2022/02/13 03:13:44;;;;;;;16.67;6.25;;;;;;;0.21;96.62;66803.22;5008556;28;20053;-87
2022/02/13 03:16:10;;;;;;;10.60;5.95;;;;;;;0.22;96.26;66807.53;5005645;28;20430;-86
2022/02/13 03:18:35;;;;;;;10.30;4.88;;;;;;;0.26;95.52;66808.28;5018291;28;20049;-88
2022/02/13 03:21:01;;;;;;;13.30;7.50;;;;;;;0.31;96.51;66816.53;5023111;28;20061;-86
2022/02/13 03:23:27;;;;;;;12.48;6.97;;;;;;;0.32;95.68;66809.81;5007317;28;20426;-87
2022/02/13 03:25:53;;;;;;;12.55;7.03;;;;;;;0.36;95.11;66822.16;5026419;28;20046;-86
2022/02/13 03:28:18;;;;;;;11.82;6.55;;;;;;;0.43;95.08;66827.41;5023579;28;20144;-86
2022/02/13 03:30:45;;;;;;;11.15;6.15;;;;;;;0.48;93.92;66832.47;5021751;28;20065;-88
2022/02/13 03:33:11;;;;;;;12.73;6.28;;;;;;;0.50;92.92;66840.53;5026402;28;20397;-86
2022/02/13 03:35:37;;;;;;;11.15;5.72;;;;;;;0.56;93.87;66841.47;5023775;28;20053;-85
2022/02/13 03:38:04;;;;;;;17.45;6.95;;;;;;;0.59;93.31;66844.84;5019614;28;20046;-85
2022/02/13 03:40:29;;;;;;;11.73;6.13;;;;;;;0.55;92.28;66846.16;5017824;28;20045;-88
2022/02/13 03:42:55;;;;;;;12.68;6.40;;;;;;;0.58;92.25;66846.91;5024725;28;20448;-89
2022/02/13 03:45:21;;;;;;;13.25;6.90;;;;;;;0.60;92.87;66846.53;5026713;28;20041;-87
2022/02/13 03:47:46;;;;;;;13.10;7.22;;;;;;;0.60;92.99;66848.59;5016321;28;20038;-87
2022/02/13 03:50:12;;;;;;;10.30;6.72;;;;;;;0.54;91.97;66839.78;5017783;28;20048;-86
2022/02/13 03:52:37;;;;;;;14.00;7.70;;;;;;;0.57;91.09;66845.78;5026574;28;20049;-87
2022/02/13 03:55:04;;;;;;;11.38;5.78;;;;;;;;;;5023465;28;20549;-85
2022/02/13 03:57:29;;;;;;;11.07;6.80;;;;;;;0.59;92.15;66840.16;5022562;28;20044;-85
2022/02/13 03:59:58;;;;;;;11.68;6.07;;;;;;;;;;5027187;28;20050;-85
2022/02/13 04:02:23;;;;;;;12.87;6.03;;;;;;;0.53;90.83;66838.09;5007833;28;20056;-87
2022/02/13 04:04:49;;;;;;;11.52;6.88;;;;;;;0.56;92.11;66842.03;5022967;28;20049;-85
2022/02/13 04:07:16;;;;;;;10.60;6.30;;;;;;;0.54;90.98;66834.53;5025525;28;20053;-86
2022/02/13 04:09:42;;;;;;;10.88;6.65;;;;;;;0.57;92.10;66842.59;5020234;28;20046;-89
2022/02/13 04:12:07;;;;;;;11.90;6.97;;;;;;;;;;5006305;28;20042;-87
2022/02/13 04:14:33;;;;;;;13.85;7.97;;;;;;;0.55;91.36;66842.97;5025560;28;20065;-84
2022/02/13 04:16:58;;;;;;;13.82;6.82;;;;;;;0.47;91.31;66834.53;5011365;28;20502;-89
2022/02/13 04:19:23;;;;;;;12.57;6.88;;;;;;;0.48;91.13;66832.47;5014374;28;20042;-86
2022/02/13 04:21:49;;;;;;;13.90;7.32;;;;;;;0.49;91.26;66834.16;5020319;28;20048;-86
2022/02/13 04:24:15;;;;;;;12.50;7.00;;;;;;;0.51;91.13;66836.41;5008032;28;20042;-85
2022/02/13 04:26:40;;;;;;;16.90;6.88;;;;;;;0.53;91.44;66838.66;5019161;28;20050;-87
2022/02/13 04:29:07;;;;;;;14.70;6.63;;;;;;;0.51;91.16;66838.47;5019745;28;20041;-87
2022/02/13 04:31:33;;;;;;;14.20;7.72;;;;;;;0.53;91.08;66838.09;5016661;28;20053;-86
2022/02/13 04:33:59;;;;;;;11.82;6.53;;;;;;;0.51;90.56;66839.03;5002708;28;20069;-85
2022/02/13 04:36:24;;;;;;;11.68;6.65;;;;;;;0.54;90.94;66839.22;5017995;28;20239;-86
2022/02/13 04:38:50;;;;;;;12.80;6.63;;;;;;;0.54;90.12;66845.00;5007821;28;20048;-86
2022/02/13 04:41:15;;;;;;;10.45;6.22;;;;;;;0.53;89.89;66838.66;5021031;28;20033;-85
2022/02/13 04:43:40;;;;;;;12.18;6.75;;;;;;;;;;5023137;28;20104;-88
2022/02/13 04:46:06;;;;;;;13.13;7.18;;;;;;;0.56;90.74;66842.03;5032558;28;20047;-85
2022/02/13 04:48:31;;;;;;;13.18;7.20;;;;;;;;;;5026779;28;20034;-89
2022/02/13 04:50:56;;;;;;;12.93;7.18;;;;;;;0.60;90.67;66849.16;5033923;28;20055;-86
2022/02/13 04:53:22;;;;;;;13.50;6.47;;;;;;;0.64;89.76;66850.47;5018065;28;20379;-87
2022/02/13 04:55:47;;;;;;;12.73;7.15;;;;;;;0.66;89.53;66852.72;5017582;28;20069;-85
2022/02/13 04:58:12;;;;;;;11.40;5.95;;;;;;;0.70;88.01;66859.84;5009788;28;20410;-86
2022/02/13 05:00:38;;;;;;;9.95;6.13;;;;;;;0.73;88.52;66860.03;5027734;28;20033;-86
2022/02/13 05:03:03;;;;;;;13.70;6.28;;;;;;;0.77;88.35;66864.53;5029116;28;20099;-86
2022/02/13 05:05:29;;;;;;;12.48;6.50;;;;;;;0.73;88.79;66860.59;5048329;28;20055;-89
2022/02/13 05:07:54;;;;;;;10.95;7.18;;;;;;;0.74;88.25;66866.41;5021738;28;20553;-86
2022/02/13 05:10:20;;;;;;;9.68;6.15;;;;;;;0.76;88.16;66863.41;5010021;28;20132;-87
2022/02/13 05:12:45;;;;;;;11.13;6.57;;;;;;;0.76;87.80;66863.41;5043164;28;20033;-85
2022/02/13 05:15:10;;;;;;;10.05;6.30;;;;;;;0.73;87.47;66854.81;5039842;28;20473;-87
2022/02/13 05:17:37;;;;;;;12.20;5.70;;;;;;;0.70;87.49;66857.22;5014866;28;20045;-85
2022/02/13 05:20:06;;;;;;;10.15;6.72;;;;;;;0.73;88.04;66860.03;5046609;28;20401;-87
2022/02/13 05:22:32;;;;;;;14.27;7.22;;;;;;;0.66;87.55;66853.28;5047198;28;20041;-85
2022/02/13 05:24:57;;;;;;;11.85;6.85;;;;;;;;;;5046271;28;20052;-84
2022/02/13 05:27:22;;;;;;;12.50;6.95;;;;;;;0.58;88.48;66846.91;5026236;28;20041;-87
2022/02/13 05:29:48;;;;;;;11.88;6.90;;;;;;;0.56;88.90;66842.03;5029709;28;20140;-85
2022/02/13 05:32:13;;;;;;;12.85;7.00;;;;;;;0.59;89.50;66850.66;5028990;28;20041;-83
2022/02/13 05:34:39;;;;;;;11.05;6.43;;;;;;;;;;5030809;28;20071;-83
2022/02/13 05:37:05;;;;;;;14.15;6.97;;;;;;;0.55;89.21;66846.16;5033516;28;20468;-85
2022/02/13 05:39:30;;;;;;;10.82;6.15;;;;;;;0.61;89.01;66852.34;5027481;28;20045;-88
2022/02/13 05:41:56;;;;;;;12.77;7.43;;;;;;;0.61;88.87;66847.66;5028062;28;20405;-86
2022/02/13 05:44:21;;;;;;;9.32;5.60;;;;;;;0.59;88.58;66845.41;5005501;28;20080;-84
2022/02/13 05:46:46;;;;;;;9.43;5.80;;;;;;;0.59;88.76;66847.47;4990911;28;20046;-85
2022/02/13 05:49:13;;;;;;;11.52;6.20;;;;;;;0.54;88.61;66839.78;5009203;28;20433;-86
2022/02/13 05:51:38;;;;;;;10.63;5.57;;;;;;;0.52;88.72;66837.53;5021467;28;20068;-83
2022/02/13 05:54:04;;;;;;;12.35;7.28;;;;;;;0.53;89.94;66840.72;5025052;28;20491;-87
2022/02/13 05:56:30;;;;;;;10.27;6.95;;;;;;;0.50;89.37;66837.91;5028189;28;20042;-84
2022/02/13 05:58:55;;;;;;;9.82;6.68;;;;;;;0.51;89.33;66836.41;5026529;28;20041;-84
2022/02/13 06:01:21;;;;;;;11.10;5.35;;;;;;;0.48;88.71;66832.47;5042325;28;20043;-85
2022/02/13 06:03:47;;;;;;;10.20;6.05;;;;;;;;;;5047258;28;20053;-83
2022/02/13 06:06:12;;;;;;;11.95;6.55;;;;;;;0.51;89.00;66841.63;5046804;28;20040;-88
2022/02/13 06:08:39;;;;;;;10.95;6.35;;;;;;;0.53;88.22;66838.09;5029743;28;20056;-86
2022/02/13 06:11:04;;;;;;;12.07;6.13;;;;;;;0.54;89.64;66839.78;5044643;28;20044;-84
2022/02/13 06:13:30;;;;;;;12.48;6.00;;;;;;;0.56;88.90;66846.72;5009849;28;20495;-86
2022/02/13 06:15:55;;;;;;;13.02;6.78;;;;;;;0.54;88.40;66839.22;5009942;28;20056;-87
2022/02/13 06:18:21;;;;;;;15.07;7.28;;;;;;;0.52;88.84;66840.16;5026926;28;20045;-84
2022/02/13 06:20:46;;;;;;;9.93;6.05;;;;;;;0.51;89.20;66836.41;5009893;28;20065;-85
2022/02/13 06:23:12;;;;;;;11.82;7.15;;;;;;;0.55;88.89;66840.34;5027745;28;20045;-87
2022/02/13 06:25:37;;;;;;;10.05;6.05;;;;;;;0.48;88.28;66835.09;5028104;28;20088;-84
2022/02/13 06:28:03;;;;;;;12.80;6.90;;;;;;;0.50;89.04;66834.72;5033967;28;20155;-85
2022/02/13 06:30:29;;;;;;;9.75;6.13;;;;;;;0.47;89.13;66831.34;5042117;28;20042;-84
2022/02/13 06:32:57;;;;;;;11.43;6.63;;;;;;;0.42;88.91;66826.84;4992864;28;20030;-86
2022/02/13 06:35:24;;;;;;;12.23;6.43;;;;;;;0.35;88.75;66818.41;5027215;28;20033;-85
2022/02/13 06:37:49;;;;;;;9.77;5.90;;;;;;;0.31;89.79;66817.09;5007087;28;20042;-87
2022/02/13 06:40:15;;;;;;;13.30;6.40;;;;;;;0.34;90.23;66822.53;5025974;28;20053;-86
2022/02/13 06:42:40;;;;;;;11.77;6.15;;;;;;;0.26;89.87;66808.28;5015350;28;20036;-86
2022/02/13 06:45:06;;;;;;;13.10;6.22;;;;;;;0.25;89.75;66809.78;5025649;28;20516;-83
2022/02/13 06:47:31;;;;;;;11.30;5.95;;;;;;;0.24;89.99;66811.84;5007724;28;20414;-85
2022/02/13 06:49:56;;;;;;;14.70;7.15;;;;;;;0.23;90.19;66805.47;4999603;28;20054;-85
2022/02/13 06:52:22;;;;;;;10.15;6.00;;;;;;;;;;4996748;28;20244;-83
2022/02/13 06:54:48;;;;;;;13.10;7.57;;;;;;;0.26;90.75;66808.28;5019896;28;20037;-84
2022/02/13 06:57:13;;;;;;;14.30;7.45;;;;;;;0.24;90.34;66806.03;5014732;28;20041;-84
2022/02/13 06:59:41;;;;;;;13.15;6.47;;;;;;;0.24;90.58;66809.22;4999686;28;20038;-84
2022/02/13 07:02:09;;;;;;;9.63;6.13;;;;;;;0.28;90.09;66810.53;5002850;28;20491;-86
2022/02/13 07:04:35;;;;;;;13.60;6.72;;;;;;;0.30;89.55;66812.78;5016956;28;20115;-84
2022/02/13 07:07:02;;;;;;;11.90;6.45;;;;;;;0.26;89.56;66813.50;5015026;28;20049;-84
2022/02/13 07:09:29;;;;;;;11.68;5.88;;;;;;;0.26;89.64;66808.28;4994416;28;20046;-84
2022/02/13 07:11:54;;;;;;;14.00;7.05;;;;;;;0.30;89.64;66815.97;5018287;28;20049;-85
2022/02/13 07:14:20;;;;;;;9.77;5.50;;;;;;;0.30;89.18;66813.34;4999981;28;20565;-87
2022/02/13 07:16:45;;;;;;;10.80;5.63;;;;;;;0.33;89.33;66816.72;5013862;28;20057;-84
2022/02/13 07:19:10;;;;;;;9.73;6.25;;;;;;;0.35;89.46;66823.66;5005167;28;20060;-85
2022/02/13 07:21:36;;;;;;;9.40;6.30;;;;;;;0.38;89.65;66821.78;5014981;28;20494;-85
2022/02/13 07:24:01;;;;;;;10.50;5.53;;;;;;;0.40;88.73;66824.03;5005442;28;20048;-84
2022/02/13 07:26:27;;;;;;;10.05;5.80;;;;;;;0.38;88.23;66827.03;5039461;28;20049;-83
2022/02/13 07:29:01;;;;;;;11.27;6.20;;;;;;;0.39;88.31;66823.47;5019524;28;20049;-83
2022/02/13 07:31:32;;;;;;;10.38;6.25;;;;;;;0.44;88.47;66831.16;5020061;28;20133;-84
2022/02/13 07:33:57;;;;;;;10.07;5.97;;;;;;;0.48;88.47;66832.47;5017056;28;20050;-85
2022/02/13 07:36:24;;;;;;;11.48;6.05;;;;;;;0.51;88.46;66839.03;5017796;28;20045;-86
2022/02/13 07:38:50;;;;;;;11.07;6.20;;;;;;;0.56;88.30;66847.28;5006701;28;20111;-84
2022/02/13 07:41:15;;;;;;;11.63;5.97;;;;;;;0.59;87.81;66848.03;5030898;28;20050;-84
2022/02/13 07:43:41;;;;;;;10.95;5.72;;;;;;;0.64;87.79;66850.47;4990513;28;20160;-86
2022/02/13 07:46:06;;;;;;;11.57;7.00;;;;;;;0.68;88.36;66855.53;5021134;28;20080;-84
2022/02/13 07:48:32;;;;;;;12.95;6.47;;;;;;;0.73;86.94;66860.59;5017531;28;20069;-86
2022/02/13 07:50:57;;;;;;;10.23;4.85;;;;;;;0.78;86.04;66868.28;5014281;28;20429;-85
2022/02/13 07:53:29;;;;;;;10.55;5.78;;;;;;;0.85;85.97;66874.09;5018354;28;20038;-86
2022/02/13 07:55:55;;;;;;;10.05;5.97;;;;;;;0.90;86.50;66879.16;4996294;28;20069;-86
2022/02/13 07:58:23;;;;;;;11.18;6.38;;;;;;;0.94;86.38;66886.28;5010825;28;20045;-85
2022/02/13 08:00:50;;;;;;;12.85;5.00;;;;;;;0.98;85.72;66888.16;5012807;28;20505;-87
2022/02/13 08:03:18;;;;;;;10.57;6.53;;;;;;;1.04;86.16;66896.97;5010456;28;20045;-85
2022/02/13 08:05:45;;;;;;;8.95;5.50;;;;;;;1.09;85.59;66899.97;5009179;28;20380;-88
2022/02/13 08:08:16;;;;;;;10.98;5.45;;;;;;;1.15;85.40;66906.72;5021782;28;20048;-87
2022/02/13 08:10:43;;;;;;;9.90;5.65;;;;;;;1.21;86.49;66912.91;5019834;28;20075;-87
2022/02/13 08:13:08;;;;;;;10.98;6.13;;;;;;;1.24;85.76;66918.94;5004205;28;20482;-86
2022/02/13 08:15:34;;;;;;;9.18;6.10;;;;;;;;;;5005992;28;20048;-87
2022/02/13 08:18:10;;;;;;;8.88;5.93;;;;;;;1.33;85.50;66927.00;5004648;28;20502;-86
2022/02/13 08:20:36;;;;;;;11.70;6.00;;;;;;;1.35;84.91;66929.25;5002362;28;20071;-86
2022/02/13 08:23:04;;;;;;;11.40;6.72;;;;;;;1.43;84.99;66942.38;5016494;28;20044;-85
2022/02/13 08:25:30;;;;;;;7.97;5.55;;;;;;;1.46;84.51;66941.06;5012043;28;20401;-86
2022/02/13 08:27:56;;;;;;;11.40;5.65;;;;;;;1.53;84.67;66951.56;5009315;28;20048;-88
2022/02/13 08:30:23;;;;;;;11.48;6.50;;;;;;;1.57;84.79;66955.50;5032932;28;20072;-87
2022/02/13 08:32:49;;;;;;;13.77;6.25;;;;;;;1.60;84.59;66955.72;5042374;28;20057;-86
2022/02/13 08:35:14;;;;;;;10.73;5.90;;;;;;;1.62;84.22;66957.97;5014922;28;20092;-87
2022/02/13 08:37:40;;;;;;;8.30;5.57;;;;;;;1.69;84.49;66965.84;5009163;28;20054;-87
2022/02/13 08:40:06;;;;;;;12.38;6.18;;;;;;;1.75;84.54;66972.59;4991137;28;20085;-87
2022/02/13 08:42:32;;;;;;;13.93;6.22;;;;;;;1.83;84.02;66981.59;5003227;28;20050;-88
2022/02/13 08:44:57;;;;;;;14.27;7.38;;;;;;;1.86;84.41;66984.97;5010309;28;20390;-87
2022/02/13 08:47:22;;;;;;;12.45;6.50;;;;;;;1.93;83.96;66997.56;5001845;28;20069;-87
2022/02/13 08:49:49;;;;;;;9.77;5.57;;;;;;;2.03;83.54;66998.88;5007404;28;20470;-87
2022/02/13 08:52:16;;;;;;;10.65;5.38;;;;;;;2.13;83.40;67014.25;5012819;28;20040;-86
2022/02/13 08:54:42;;;;;;;10.73;5.90;;;;;;;;;;5028535;28;20048;-88
2022/02/13 08:57:07;;;;;;;7.43;4.43;;;;;;;2.40;82.02;67044.69;5024371;28;20053;-87
2022/02/13 08:59:35;;;;;;;10.13;6.22;;;;;;;2.55;82.45;67065.72;5022151;28;20038;-88
2022/02/13 09:02:01;;;;;;;8.60;5.50;;;;;;;2.69;81.90;67071.00;5007427;28;20045;-87
2022/02/13 09:04:26;;;;;;;9.05;5.75;;;;;;;2.82;81.20;67092.97;5007064;28;20792;-88
2022/02/13 09:06:51;;;;;;;10.48;6.47;;;;;;;;;;5036394;28;20060;-87
2022/02/13 09:09:18;;;;;;;11.70;6.45;;;;;;;;;;5006329;28;20132;-88
2022/02/13 09:11:43;;;;;;;8.02;5.28;;;;;;;3.06;79.71;67116.84;4999563;28;20402;-88
2022/02/13 09:14:10;;;;;;;8.30;4.80;;;;;;;;;;5012652;28;20041;-88
2022/02/13 09:16:36;;;;;;;8.23;4.90;;;;;;;3.19;79.03;67130.91;5030411;28;20053;-88
2022/02/13 09:19:07;;;;;;;9.55;5.78;;;;;;;3.25;80.05;67137.69;5026803;28;20045;-89
2022/02/13 09:21:33;;;;;;;10.07;5.60;;;;;;;3.33;79.26;67147.28;5018992;28;20042;-88
2022/02/13 09:24:00;;;;;;;9.25;6.25;;;;;;;3.44;79.34;67158.56;5021551;28;20045;-90
2022/02/13 09:26:25;;;;;;;10.52;5.60;;;;;;;;;;5019461;28;20042;-88
2022/02/13 09:28:53;;;;;;;8.75;5.05;;;;;;;3.59;78.50;67176.03;5024218;28;20077;-89
2022/02/13 09:31:22;;;;;;;10.07;4.47;;;;;;;3.66;76.36;67183.38;5039402;28;20096;-88
2022/02/13 09:33:48;;;;;;;8.65;5.70;;;;;;;;;;5028367;28;20045;-90
2022/02/13 09:36:14;;;;;;;9.10;5.18;;;;;;;;;;5015473;28;20097;-89
2022/02/13 09:38:39;;;;;;;7.40;4.80;;;;;;;;;;5008617;28;20395;-90
2022/02/13 09:41:05;;;;;;;8.25;4.70;;;;;;;;;;5019694;28;20044;-89
2022/02/13 09:43:31;;;;;;;9.27;5.32;;;;;;;;;;5022681;28;20494;-88
2022/02/13 09:45:57;;;;;;;10.23;5.78;;;;;;;;;;5013949;28;20059;-88
2022/02/13 09:48:23;;;;;;;8.98;5.80;;;;;;;;;;5023937;28;20132;-88
2022/02/13 09:50:49;;;;;;;10.25;5.00;;;;;;;4.24;76.31;67247.69;5020216;28;20096;-87
2022/02/13 09:53:16;;;;;;;9.38;5.53;;;;;;;4.32;76.25;67250.34;5016670;28;20057;-88
2022/02/13 09:55:42;;;;;;;8.15;5.45;;;;;;;4.38;76.60;67262.38;5010311;28;20050;-88
2022/02/13 09:58:07;;;;;;;8.35;5.20;;;;;;;4.41;75.74;67265.75;5022778;28;20402;-90
2022/02/13 10:00:52;;;;;;;8.52;5.85;;;;;;;;;;5024761;28;20050;-88
2022/02/13 10:03:20;;;;;;;7.85;5.35;;;;;;;;;;5018043;28;20144;-88
2022/02/13 10:05:46;;;;;;;9.85;5.18;;;;;;;;;;5023666;28;20033;-88
2022/02/13 10:08:11;;;;;;;9.27;5.38;;;;;;;4.55;75.12;67286.28;5018253;28;20095;-89
2022/02/13 10:10:36;;;;;;;9.88;5.43;;;;;;;;;;5040534;28;20405;-88
2022/02/13 10:13:03;;;;;;;10.18;6.03;;;;;;;4.63;76.00;67290.59;5021627;28;20490;-89
2022/02/13 10:15:31;;;;;;;9.60;5.35;;;;;;;;;;5024108;28;20057;-89
2022/02/13 10:18:03;;;;;;;8.52;4.85;;;;;;;4.74;74.36;67297.72;5043407;28;20045;-89
2022/02/13 10:20:38;;;;;;;8.52;4.85;;;;;;;;;;5025430;28;20534;-89
2022/02/13 10:23:15;;;;;;;8.27;5.65;;;;;;;4.87;75.20;67316.56;5040166;28;20102;-90
2022/02/13 10:25:42;;;;;;;9.88;5.57;;;;;;;4.92;73.74;67322.19;5041760;28;20045;-89
2022/02/13 10:28:12;;;;;;;8.60;5.53;;;;;;;4.97;75.43;67328.41;5036529;28;21091;-89
2022/02/13 10:30:41;;;;;;;11.93;5.82;;;;;;;;;;5029632;28;20104;-89
2022/02/13 10:33:16;;;;;;;;;;;;;;;5.11;74.33;67337.81;5026967;28;20042;-89
2022/02/13 10:35:42;;;;;;;10.70;5.47;;;;;;;;;;5017313;28;19913;-89
2022/02/13 10:38:08;;;;;;;9.43;5.78;;;;;;;;;;5024055;28;20099;-90
2022/02/13 10:40:33;;;;;;;9.25;5.65;;;;;;;5.23;73.84;67356.66;5023628;28;20568;-90
2022/02/13 10:43:03;;;;;;;9.48;5.13;;;;;;;;;;5020626;28;20041;-89
2022/02/13 10:45:30;;;;;;;9.13;5.95;;;;;;;5.37;73.31;67372.47;5009544;28;20065;-90
2022/02/13 10:48:01;;;;;;;9.95;5.75;;;;;;;5.36;74.38;67370.78;5005018;28;20504;-91
2022/02/13 10:50:30;;;;;;;8.20;5.43;;;;;;;5.37;74.27;67371.91;5026418;28;20084;-88
2022/02/13 10:52:59;;;;;;;8.63;5.10;;;;;;;5.38;73.27;67367.75;5024824;28;20592;-90
2022/02/13 10:55:28;;;;;;;7.50;5.22;;;;;;;5.36;72.94;67371.34;5010934;28;20053;-90
2022/02/13 10:57:54;;;;;;;9.93;5.50;;;;;;;;;;5006232;28;20490;-89
2022/02/13 11:00:19;;;;;;;9.13;5.47;;;;;;;;;;5025718;28;20049;-90
2022/02/13 11:02:45;;;;;;;7.70;5.07;;;;;;;;;;5035353;28;20041;-90
2022/02/13 11:05:11;;;;;;;9.95;6.40;;;;;;;;;;5024922;28;20107;-89
2022/02/13 11:07:49;;;;;;;7.05;4.93;;;;;;;5.66;72.72;67398.81;5020832;28;20041;-89
2022/02/13 11:10:28;;;;;;;7.40;5.32;;;;;;;5.64;74.15;67402.41;5007098;28;20059;-89
2022/02/13 11:12:55;;;;;;;9.17;6.30;;;;;;;5.72;75.02;67410.31;5028785;28;20029;-89
2022/02/13 11:15:27;;;;;;;7.07;5.32;;;;;;;;;;5040428;28;20029;-89
2022/02/13 11:17:57;;;;;;;9.13;5.63;;;;;;;5.83;74.09;67417.47;5036661;28;20125;-89
2022/02/13 11:20:22;;;;;;;8.55;5.07;;;;;;;5.89;73.45;67429.53;5027179;28;20045;-90
2022/02/13 11:22:53;;;;;;;8.65;5.57;;;;;;;5.93;74.19;67434.09;5029285;28;20114;-89
2022/02/13 11:25:38;;;;;;;8.50;4.55;;;;;;;;;;5020655;28;20033;-89
2022/02/13 11:28:03;;;;;;;9.65;5.97;;;;;;;;;;4964152;28;20617;-91
2022/02/13 11:30:44;;;;;;;8.27;5.80;;;;;;;6.16;73.75;67453.66;4966479;28;20046;-89
2022/02/13 11:33:35;;;;;;;11.07;6.45;;;;;;;;;;4962778;28;20038;-89
2022/02/13 11:36:06;;;;;;;11.25;6.32;;;;;;;6.22;73.29;67466.31;4975928;28;20109;-89
2022/02/13 11:38:37;;;;;;;9.15;5.57;;;;;;;6.26;72.64;67464.97;4967966;28;20510;-89
2022/02/13 11:41:02;;;;;;;7.45;5.20;;;;;;;6.30;73.61;67474.78;4955642;28;20567;-90
2022/02/13 11:43:59;;;;;;;9.65;6.07;;;;;;;6.36;73.40;67481.56;4940771;28;20054;-90
2022/02/13 11:46:27;;;;;;;8.45;5.63;;;;;;;6.43;71.96;67481.00;4969744;28;20046;-90
2022/02/13 11:49:00;;;;;;;8.98;5.38;;;;;;;6.45;73.41;67491.19;4971975;28;20043;-91
2022/02/13 11:51:44;;;;;;;8.65;5.22;;;;;;;;;;4970469;28;20034;-89
2022/02/13 11:54:09;;;;;;;9.10;5.25;;;;;;;;;;4970927;28;20248;-90
2022/02/13 11:56:35;;;;;;;8.27;5.22;;;;;;;6.68;72.59;67511.34;4961424;28;20097;-91
2022/02/13 11:59:01;;;;;;;7.53;5.00;;;;;;;6.74;72.64;67518.13;4988839;28;20048;-89